createdAt,value
2019-03-05T00:00:16.249Z,92.28
2019-03-05T00:01:16.180Z,91.76
2019-03-05T00:02:16.234Z,91.45
2019-03-05T00:03:16.241Z,92.49
2019-03-05T00:04:16.163Z,91.66
2019-03-05T00:05:16.132Z,91.55
2019-03-05T00:06:16.142Z,92.07
2019-03-05T00:07:16.164Z,90.31
2019-03-05T00:08:16.160Z,91.24
2019-03-05T00:09:16.115Z,91.66
2019-03-05T00:10:16.378Z,90.93
2019-03-05T00:11:16.090Z,91.55
2019-03-05T00:12:16.131Z,91.35
2019-03-05T00:13:16.114Z,91.24
2019-03-05T00:14:18.639Z,91.14
2019-03-05T00:15:16.079Z,91.55
2019-03-05T00:16:16.160Z,91.14
2019-03-05T00:17:16.042Z,91.14
2019-03-05T00:18:16.006Z,91.14
2019-03-05T00:19:15.977Z,91.14
2019-03-05T00:20:15.997Z,91.35
2019-03-05T00:21:16.029Z,91.55
2019-03-05T00:22:15.969Z,91.45
2019-03-05T00:23:15.967Z,91.24
2019-03-05T00:24:15.932Z,91.03
2019-03-05T00:25:15.991Z,91.35
2019-03-05T00:26:15.983Z,91.03
2019-03-05T00:27:15.895Z,90.72
2019-03-05T00:28:15.998Z,90.72
2019-03-05T00:29:15.897Z,91.41
2019-03-05T00:30:15.890Z,91.24
2019-03-05T00:31:15.950Z,91.24
2019-03-05T00:32:15.899Z,91.45
2019-03-05T00:33:15.868Z,91.45
2019-03-05T00:34:15.847Z,91.76
2019-03-05T00:35:15.821Z,91.45
2019-03-05T00:36:15.808Z,91.24
2019-03-05T00:37:15.901Z,91.24
2019-03-05T00:38:15.852Z,91.14
2019-03-05T00:39:15.769Z,91.35
2019-03-05T00:40:15.857Z,91.35
2019-03-05T00:41:15.767Z,90.93
2019-03-05T00:42:15.838Z,91.14
2019-03-05T00:43:15.730Z,90.93
2019-03-05T00:44:15.795Z,90.93
2019-03-05T00:45:15.748Z,90.93
2019-03-05T00:46:15.745Z,90.20
2019-03-05T00:47:15.685Z,91.35
2019-03-05T00:48:15.720Z,90.06
2019-03-05T00:49:15.680Z,90.31
2019-03-05T00:50:15.676Z,90.06
2019-03-05T00:51:24.527Z,89.96
2019-03-05T00:52:17.024Z,90.16
2019-03-05T00:53:15.640Z,89.58
2019-03-05T00:54:15.707Z,89.54
2019-03-05T00:55:15.644Z,90.41
2019-03-05T00:56:15.669Z,89.96
2019-03-05T00:57:15.603Z,89.89
2019-03-05T00:58:15.633Z,90.00
2019-03-05T00:59:15.592Z,90.41
2019-03-05T01:00:15.568Z,90.58
2019-03-05T01:01:15.555Z,90.78
2019-03-05T01:02:15.523Z,89.58
2019-03-05T01:03:15.547Z,89.79
2019-03-05T01:04:15.587Z,90.10
2019-03-05T01:05:15.584Z,89.75
2019-03-05T01:06:15.516Z,90.93
2019-03-05T01:07:15.588Z,90.83
2019-03-05T01:08:15.478Z,90.00
2019-03-05T01:09:15.452Z,89.48
2019-03-05T01:10:15.473Z,90.31
2019-03-05T01:11:15.435Z,89.34
2019-03-05T01:12:15.417Z,89.34
2019-03-05T01:13:15.476Z,89.48
2019-03-05T01:14:15.401Z,89.89
2019-03-05T01:15:15.431Z,89.79
2019-03-05T01:16:15.372Z,89.48
2019-03-05T01:17:15.368Z,89.38
2019-03-05T01:18:15.398Z,89.75
2019-03-05T01:19:15.421Z,90.31
2019-03-05T01:20:15.386Z,89.17
2019-03-05T01:21:15.329Z,89.38
2019-03-05T01:22:15.348Z,89.44
2019-03-05T01:23:15.337Z,89.48
2019-03-05T01:24:15.286Z,89.89
2019-03-05T01:25:15.315Z,89.17
2019-03-05T01:26:15.308Z,89.79
2019-03-05T01:27:15.275Z,89.89
2019-03-05T01:28:15.245Z,90.72
2019-03-05T01:29:15.273Z,89.48
2019-03-05T01:30:15.341Z,90.10
2019-03-05T01:31:15.248Z,89.79
2019-03-05T01:32:15.206Z,89.38
2019-03-05T01:33:15.190Z,89.48
2019-03-05T01:34:15.303Z,89.65
2019-03-05T01:35:15.205Z,89.69
2019-03-05T01:36:15.210Z,89.69
2019-03-05T01:37:15.221Z,89.07
2019-03-05T01:38:15.287Z,89.38
2019-03-05T01:39:15.129Z,88.86
2019-03-05T01:40:15.185Z,87.51
2019-03-05T01:41:15.156Z,87.47
2019-03-05T01:42:15.214Z,88.55
2019-03-05T01:43:15.136Z,87.30
2019-03-05T01:44:15.131Z,87.51
2019-03-05T01:45:15.085Z,88.76
2019-03-05T01:46:15.078Z,87.41
2019-03-05T01:47:15.051Z,87.93
2019-03-05T01:48:15.043Z,87.30
2019-03-05T01:49:15.065Z,87.41
2019-03-05T01:50:15.161Z,87.41
2019-03-05T01:51:15.008Z,87.51
2019-03-05T01:52:15.047Z,87.62
2019-03-05T01:53:15.001Z,87.30
2019-03-05T01:54:15.041Z,87.55
2019-03-05T01:55:15.059Z,87.04
2019-03-05T01:56:14.986Z,87.10
2019-03-05T01:57:15.018Z,87.41
2019-03-05T01:58:14.928Z,87.30
2019-03-05T01:59:15.013Z,87.24
2019-03-05T02:00:14.990Z,87.62
2019-03-05T02:01:14.975Z,87.20
2019-03-05T02:02:14.929Z,86.79
2019-03-05T02:03:14.906Z,87.35
2019-03-05T02:04:14.886Z,86.47
2019-03-05T02:05:15.017Z,86.83
2019-03-05T02:06:14.855Z,87.55
2019-03-05T02:07:14.832Z,87.97
2019-03-05T02:08:14.890Z,87.35
2019-03-05T02:09:14.813Z,87.55
2019-03-05T02:10:14.935Z,87.24
2019-03-05T02:11:14.900Z,87.45
2019-03-05T02:12:14.794Z,87.97
2019-03-05T02:13:14.832Z,87.55
2019-03-05T02:14:14.820Z,87.66
2019-03-05T02:15:14.788Z,88.18
2019-03-05T02:16:14.809Z,87.80
2019-03-05T02:17:14.730Z,88.53
2019-03-05T02:18:14.721Z,88.94
2019-03-05T02:19:14.743Z,87.59
2019-03-05T02:20:14.739Z,87.90
2019-03-05T02:21:14.721Z,88.90
2019-03-05T02:22:14.699Z,87.59
2019-03-05T02:23:14.679Z,88.07
2019-03-05T02:24:14.667Z,88.42
2019-03-05T02:25:14.701Z,88.63
2019-03-05T02:26:14.639Z,88.84
2019-03-05T02:27:14.636Z,88.94
2019-03-05T02:28:14.665Z,88.94
2019-03-05T02:29:14.638Z,88.01
2019-03-05T02:30:14.681Z,88.94
2019-03-05T02:31:14.588Z,88.94
2019-03-05T02:32:14.571Z,87.45
2019-03-05T02:33:14.571Z,88.84
2019-03-05T02:34:14.559Z,89.11
2019-03-05T02:35:14.588Z,88.94
2019-03-05T02:36:14.528Z,89.04
2019-03-05T02:37:14.571Z,89.36
2019-03-05T02:38:14.501Z,89.46
2019-03-05T02:39:14.512Z,89.04
2019-03-05T02:40:14.533Z,89.04
2019-03-05T02:41:14.508Z,89.04
2019-03-05T02:42:14.505Z,89.36
2019-03-05T02:43:14.448Z,89.04
2019-03-05T02:44:14.447Z,89.46
2019-03-05T02:45:14.543Z,89.46
2019-03-05T02:46:14.527Z,89.04
2019-03-05T02:47:14.421Z,89.36
2019-03-05T02:48:14.444Z,89.15
2019-03-05T02:49:14.441Z,89.36
2019-03-05T02:50:14.398Z,89.40
2019-03-05T02:51:14.419Z,89.15
2019-03-05T02:52:14.361Z,89.36
2019-03-05T02:53:14.377Z,89.25
2019-03-05T02:54:14.359Z,89.56
2019-03-05T02:55:14.340Z,89.56
2019-03-05T02:56:14.352Z,89.36
2019-03-05T02:57:14.351Z,89.46
2019-03-05T02:58:14.428Z,89.46
2019-03-05T02:59:14.299Z,89.36
2019-03-05T03:00:14.322Z,89.15
2019-03-05T03:01:14.255Z,89.36
2019-03-05T03:02:14.247Z,89.25
2019-03-05T03:03:14.291Z,89.25
2019-03-05T03:04:14.301Z,89.15
2019-03-05T03:05:14.321Z,89.25
2019-03-05T03:06:14.211Z,89.56
2019-03-05T03:07:14.270Z,89.67
2019-03-05T03:08:14.371Z,89.87
2019-03-05T03:09:14.189Z,89.56
2019-03-05T03:10:14.210Z,89.36
2019-03-05T03:11:14.257Z,89.46
2019-03-05T03:12:14.146Z,89.61
2019-03-05T03:13:14.185Z,89.40
2019-03-05T03:14:14.263Z,89.19
2019-03-05T03:15:14.109Z,89.61
2019-03-05T03:16:14.175Z,89.36
2019-03-05T03:17:14.084Z,89.50
2019-03-05T03:18:14.079Z,89.29
2019-03-05T03:19:14.077Z,89.40
2019-03-05T03:20:14.202Z,89.56
2019-03-05T03:21:14.048Z,89.61
2019-03-05T03:22:14.076Z,89.71
2019-03-05T03:23:14.061Z,89.61
2019-03-05T03:24:14.045Z,89.56
2019-03-05T03:25:14.061Z,89.29
2019-03-05T03:26:13.999Z,89.40
2019-03-05T03:27:13.989Z,89.61
2019-03-05T03:28:13.987Z,89.71
2019-03-05T03:29:14.020Z,89.81
2019-03-05T03:30:13.958Z,89.92
2019-03-05T03:31:13.955Z,89.56
2019-03-05T03:32:13.932Z,89.40
2019-03-05T03:33:13.925Z,89.67
2019-03-05T03:34:13.931Z,89.25
2019-03-05T03:35:14.286Z,89.36
2019-03-05T03:36:13.972Z,89.46
2019-03-05T03:37:13.926Z,89.77
2019-03-05T03:38:13.860Z,89.36
2019-03-05T03:39:13.869Z,89.04
2019-03-05T03:40:13.864Z,89.15
2019-03-05T03:41:13.890Z,88.94
2019-03-05T03:42:13.873Z,89.36
2019-03-05T03:43:13.862Z,89.36
2019-03-05T03:44:13.843Z,89.46
2019-03-05T03:45:13.835Z,89.56
2019-03-05T03:46:13.816Z,89.25
2019-03-05T03:47:13.831Z,89.56
2019-03-05T03:48:13.762Z,89.56
2019-03-05T03:49:13.822Z,89.15
2019-03-05T03:50:13.790Z,89.67
2019-03-05T03:51:13.796Z,89.67
2019-03-05T03:52:13.735Z,89.67
2019-03-05T03:53:13.727Z,89.67
2019-03-05T03:54:13.716Z,89.56
2019-03-05T03:55:13.723Z,89.98
2019-03-05T03:56:13.716Z,88.94
2019-03-05T03:57:13.783Z,89.04
2019-03-05T03:58:13.662Z,89.04
2019-03-05T03:59:13.659Z,89.46
2019-03-05T04:00:13.657Z,89.36
2019-03-05T04:01:13.763Z,89.36
2019-03-05T04:02:13.645Z,89.25
2019-03-05T04:03:13.633Z,88.94
2019-03-05T04:04:13.588Z,89.25
2019-03-05T04:05:13.598Z,89.46
2019-03-05T04:06:13.589Z,89.67
2019-03-05T04:07:13.599Z,88.84
2019-03-05T04:08:13.569Z,88.94
2019-03-05T04:09:13.575Z,89.36
2019-03-05T04:10:13.656Z,89.15
2019-03-05T04:11:13.515Z,89.25
2019-03-05T04:12:13.515Z,89.15
2019-03-05T04:13:13.638Z,88.94
2019-03-05T04:14:13.482Z,89.04
2019-03-05T04:15:13.549Z,89.25
2019-03-05T04:16:13.550Z,88.73
2019-03-05T04:17:13.452Z,88.94
2019-03-05T04:18:13.450Z,88.42
2019-03-05T04:19:13.469Z,88.21
2019-03-05T04:20:13.453Z,88.63
2019-03-05T04:21:13.464Z,88.42
2019-03-05T04:22:13.510Z,88.94
2019-03-05T04:23:13.436Z,88.53
2019-03-05T04:24:13.377Z,89.04
2019-03-05T04:25:13.483Z,89.25
2019-03-05T04:26:13.367Z,89.25
2019-03-05T04:27:13.398Z,89.04
2019-03-05T04:28:13.418Z,89.36
2019-03-05T04:29:13.321Z,89.04
2019-03-05T04:30:13.309Z,88.63
2019-03-05T04:31:13.302Z,88.94
2019-03-05T04:32:13.340Z,89.15
2019-03-05T04:33:13.291Z,89.25
2019-03-05T04:34:13.287Z,89.46
2019-03-05T04:35:13.350Z,89.56
2019-03-05T04:36:13.252Z,89.61
2019-03-05T04:37:13.236Z,89.19
2019-03-05T04:38:13.233Z,89.77
2019-03-05T04:39:13.218Z,89.50
2019-03-05T04:40:13.265Z,89.71
2019-03-05T04:41:13.224Z,89.50
2019-03-05T04:42:13.230Z,89.71
2019-03-05T04:43:13.174Z,89.81
2019-03-05T04:44:13.159Z,89.40
2019-03-05T04:45:13.154Z,89.71
2019-03-05T04:46:13.161Z,89.86
2019-03-05T04:47:13.154Z,89.92
2019-03-05T04:48:13.182Z,90.85
2019-03-05T04:49:13.116Z,90.02
2019-03-05T04:50:13.161Z,89.81
2019-03-05T04:51:13.099Z,90.06
2019-03-05T04:52:13.124Z,90.02
2019-03-05T04:53:13.089Z,89.61
2019-03-05T04:54:13.065Z,90.12
2019-03-05T04:55:13.077Z,90.95
2019-03-05T04:56:13.101Z,90.85
2019-03-05T04:57:13.031Z,90.23
2019-03-05T04:58:13.024Z,90.33
2019-03-05T04:59:13.029Z,90.23
2019-03-05T05:00:12.998Z,90.85
2019-03-05T05:01:12.998Z,90.85
2019-03-05T05:02:13.022Z,90.95
2019-03-05T05:03:12.971Z,90.89
2019-03-05T05:04:12.960Z,91.16
2019-03-05T05:05:12.975Z,91.16
2019-03-05T05:06:12.931Z,90.33
2019-03-05T05:07:13.011Z,91.16
2019-03-05T05:08:12.915Z,90.95
2019-03-05T05:09:12.915Z,91.06
2019-03-05T05:10:12.890Z,91.27
2019-03-05T05:11:12.993Z,90.75
2019-03-05T05:12:12.878Z,91.47
2019-03-05T05:13:12.913Z,91.06
2019-03-05T05:14:12.912Z,90.85
2019-03-05T05:15:12.878Z,90.75
2019-03-05T05:16:12.834Z,91.06
2019-03-05T05:17:12.853Z,91.47
2019-03-05T05:18:12.860Z,91.16
2019-03-05T05:19:12.912Z,91.16
2019-03-05T05:20:12.791Z,91.06
2019-03-05T05:21:12.770Z,91.47
2019-03-05T05:22:12.789Z,91.68
2019-03-05T05:23:12.801Z,91.68
2019-03-05T05:24:12.742Z,91.37
2019-03-05T05:25:12.790Z,91.47
2019-03-05T05:26:12.719Z,90.85
2019-03-05T05:27:12.719Z,91.47
2019-03-05T05:28:12.695Z,90.95
2019-03-05T05:29:12.725Z,91.58
2019-03-05T05:30:12.692Z,91.27
2019-03-05T05:31:12.677Z,91.16
2019-03-05T05:32:12.660Z,91.47
2019-03-05T05:33:12.655Z,91.37
2019-03-05T05:34:12.657Z,91.06
2019-03-05T05:35:12.640Z,91.27
2019-03-05T05:36:12.632Z,91.12
2019-03-05T05:37:12.600Z,91.06
2019-03-05T05:38:12.602Z,91.16
2019-03-05T05:39:12.579Z,91.16
2019-03-05T05:40:12.585Z,90.75
2019-03-05T05:41:12.587Z,91.16
2019-03-05T05:42:12.547Z,90.29
2019-03-05T05:43:12.536Z,89.98
2019-03-05T05:44:12.525Z,90.02
2019-03-05T05:45:12.516Z,90.75
2019-03-05T05:46:12.849Z,90.54
2019-03-05T05:47:12.497Z,89.46
2019-03-05T05:48:12.486Z,89.67
2019-03-05T05:49:12.472Z,89.77
2019-03-05T05:50:12.466Z,89.46
2019-03-05T05:51:12.455Z,89.46
2019-03-05T05:52:12.482Z,89.77
2019-03-05T05:53:12.478Z,89.67
2019-03-05T05:54:12.470Z,89.87
2019-03-05T05:55:12.454Z,89.56
2019-03-05T05:56:12.412Z,89.56
2019-03-05T05:57:12.405Z,89.36
2019-03-05T05:58:12.406Z,89.56
2019-03-05T05:59:12.365Z,89.25
2019-03-05T06:00:12.380Z,89.77
2019-03-05T06:01:12.346Z,89.67
2019-03-05T06:02:12.335Z,89.67
2019-03-05T06:03:12.331Z,89.77
2019-03-05T06:04:12.337Z,89.77
2019-03-05T06:05:12.311Z,89.56
2019-03-05T06:06:12.377Z,89.56
2019-03-05T06:07:12.580Z,89.56
2019-03-05T06:08:12.283Z,89.77
2019-03-05T06:09:12.270Z,89.77
2019-03-05T06:10:12.288Z,90.39
2019-03-05T06:11:12.264Z,90.64
2019-03-05T06:12:12.376Z,91.27
2019-03-05T06:13:12.228Z,90.50
2019-03-05T06:14:12.226Z,91.27
2019-03-05T06:15:12.200Z,91.27
2019-03-05T06:16:12.192Z,92.10
2019-03-05T06:17:12.195Z,92.20
2019-03-05T06:18:12.204Z,92.93
2019-03-05T06:19:12.158Z,92.82
2019-03-05T06:20:12.146Z,93.28
2019-03-05T06:21:12.139Z,93.49
2019-03-05T06:22:12.140Z,94.11
2019-03-05T06:23:12.122Z,94.73
2019-03-05T06:24:12.126Z,95.19
2019-03-05T06:25:12.094Z,95.09
2019-03-05T06:26:12.081Z,94.73
2019-03-05T06:27:12.093Z,95.29
2019-03-05T06:28:12.114Z,95.29
2019-03-05T06:29:12.099Z,95.61
2019-03-05T06:30:12.037Z,95.19
2019-03-05T06:31:12.030Z,95.50
2019-03-05T06:32:12.044Z,95.71
2019-03-05T06:33:12.024Z,96.64
2019-03-05T06:34:12.000Z,96.64
2019-03-05T06:35:12.000Z,96.23
2019-03-05T06:36:11.992Z,96.95
2019-03-05T06:37:11.997Z,96.75
2019-03-05T06:38:11.983Z,96.85
2019-03-05T06:39:11.944Z,96.44
2019-03-05T06:40:11.935Z,96.75
2019-03-05T06:41:11.923Z,96.44
2019-03-05T06:42:11.936Z,96.95
2019-03-05T06:43:11.916Z,97.16
2019-03-05T06:44:11.890Z,96.95
2019-03-05T06:45:11.890Z,97.27
2019-03-05T06:46:11.876Z,97.16
2019-03-05T06:47:11.879Z,97.06
2019-03-05T06:48:11.850Z,97.58
2019-03-05T06:49:11.908Z,97.78
2019-03-05T06:50:11.892Z,97.16
2019-03-05T06:51:11.897Z,97.27
2019-03-05T06:52:12.067Z,97.78
2019-03-05T06:53:11.828Z,97.72
2019-03-05T06:54:11.789Z,97.68
2019-03-05T06:55:11.800Z,97.52
2019-03-05T06:56:11.795Z,97.41
2019-03-05T06:57:11.765Z,97.41
2019-03-05T06:58:12.083Z,97.52
2019-03-05T06:59:11.811Z,97.93
2019-03-05T07:00:11.816Z,97.83
2019-03-05T07:01:11.730Z,98.14
2019-03-05T07:02:11.708Z,97.93
2019-03-05T07:03:11.709Z,98.45
2019-03-05T07:04:11.686Z,98.97
2019-03-05T07:05:11.704Z,99.18
2019-03-05T07:06:11.663Z,98.97
2019-03-05T07:07:11.663Z,98.66
2019-03-05T07:08:11.638Z,98.35
2019-03-05T07:09:11.632Z,98.97
2019-03-05T07:10:11.658Z,98.66
2019-03-05T07:11:11.636Z,98.86
2019-03-05T07:12:11.598Z,98.55
2019-03-05T07:13:11.588Z,98.60
2019-03-05T07:14:11.617Z,98.71
2019-03-05T07:15:11.588Z,98.91
2019-03-05T07:16:11.552Z,98.97
2019-03-05T07:17:11.602Z,98.81
2019-03-05T07:18:11.548Z,98.71
2019-03-05T07:19:11.574Z,99.33
2019-03-05T07:20:11.512Z,99.02
2019-03-05T07:21:11.510Z,99.33
2019-03-05T07:22:11.507Z,99.64
2019-03-05T07:23:11.505Z,98.91
2019-03-05T07:24:11.481Z,99.33
2019-03-05T07:25:11.507Z,99.12
2019-03-05T07:26:11.465Z,99.54
2019-03-05T07:27:11.491Z,99.43
2019-03-05T07:28:11.441Z,99.02
2019-03-05T07:29:11.451Z,98.91
2019-03-05T07:30:11.424Z,99.54
2019-03-05T07:31:11.417Z,99.74
2019-03-05T07:32:11.430Z,99.64
2019-03-05T07:33:11.424Z,99.95
2019-03-05T07:34:11.367Z,99.99
2019-03-05T07:35:11.374Z,99.85
2019-03-05T07:36:11.349Z,99.74
2019-03-05T07:37:11.341Z,99.99
2019-03-05T07:38:11.347Z,99.85
2019-03-05T07:39:11.314Z,99.99
2019-03-05T07:40:11.312Z,99.99
2019-03-05T07:41:11.477Z,99.99
2019-03-05T07:42:11.437Z,99.99
2019-03-05T07:43:11.350Z,99.99
2019-03-05T07:44:11.287Z,99.99
2019-03-05T07:45:11.292Z,99.95
2019-03-05T07:46:11.303Z,99.99
2019-03-05T07:47:11.305Z,99.99
2019-03-05T07:48:11.229Z,99.99
2019-03-05T07:49:11.312Z,99.99
2019-03-05T07:50:11.279Z,99.74
2019-03-05T07:51:11.194Z,99.99
2019-03-05T07:52:11.215Z,99.95
2019-03-05T07:53:11.220Z,99.95
2019-03-05T07:54:11.224Z,99.99
2019-03-05T07:55:13.838Z,99.99
2019-03-05T07:56:11.204Z,99.95
2019-03-05T07:57:11.199Z,99.85
2019-03-05T07:58:11.135Z,99.64
2019-03-05T07:59:11.237Z,99.85
2019-03-05T08:00:11.105Z,99.85
2019-03-05T08:01:21.535Z,99.59
2019-03-05T08:02:12.112Z,99.80
2019-03-05T08:03:11.127Z,99.49
2019-03-05T08:04:11.103Z,99.33
2019-03-05T08:05:11.093Z,99.07
2019-03-05T08:06:11.173Z,99.80
2019-03-05T08:07:11.052Z,99.74
2019-03-05T08:08:11.019Z,99.70
2019-03-05T08:09:11.092Z,99.85
2019-03-05T08:10:10.987Z,99.91
2019-03-05T08:11:11.048Z,99.85
2019-03-05T08:12:11.893Z,99.74
2019-03-05T08:13:11.030Z,99.54
2019-03-05T08:14:10.949Z,99.99
2019-03-05T08:15:11.060Z,99.85
2019-03-05T08:16:10.963Z,99.91
2019-03-05T08:17:10.908Z,99.74
2019-03-05T08:18:10.963Z,99.74
2019-03-05T08:19:10.903Z,99.64
2019-03-05T08:20:10.905Z,99.99
2019-03-05T08:21:10.903Z,99.99
2019-03-05T08:22:10.922Z,99.99
2019-03-05T08:23:10.947Z,99.99
2019-03-05T08:24:10.868Z,99.99
2019-03-05T08:25:10.866Z,99.99
2019-03-05T08:26:10.835Z,99.99
2019-03-05T08:27:10.929Z,99.99
2019-03-05T08:28:11.743Z,99.99
2019-03-05T08:29:10.850Z,99.99
2019-03-05T08:30:14.472Z,99.99
2019-03-05T08:31:10.801Z,99.99
2019-03-05T08:32:10.751Z,99.74
2019-03-05T08:33:11.728Z,99.74
2019-03-05T08:34:10.778Z,99.80
2019-03-05T08:35:10.819Z,99.99
2019-03-05T08:36:10.753Z,99.91
2019-03-05T08:37:13.343Z,99.91
2019-03-05T08:38:10.704Z,99.91
2019-03-05T08:39:10.712Z,99.59
2019-03-05T08:40:10.665Z,99.70
2019-03-05T08:41:10.727Z,99.70
2019-03-05T08:42:10.752Z,99.91
2019-03-05T08:43:11.187Z,99.99
2019-03-05T08:44:10.625Z,99.76
2019-03-05T08:45:10.610Z,99.96
2019-03-05T08:46:10.680Z,99.99
2019-03-05T08:47:10.684Z,99.76
2019-03-05T08:48:10.616Z,99.99
2019-03-05T08:49:10.577Z,99.76
2019-03-05T08:50:10.654Z,99.55
2019-03-05T08:51:10.573Z,99.24
2019-03-05T08:52:10.539Z,99.09
2019-03-05T08:53:10.585Z,99.19
2019-03-05T08:54:10.543Z,99.40
2019-03-05T08:55:10.570Z,99.19
2019-03-05T08:56:10.504Z,98.99
2019-03-05T08:57:10.500Z,99.13
2019-03-05T08:58:10.513Z,99.44
2019-03-05T08:59:10.531Z,99.24
2019-03-05T09:00:10.544Z,98.93
2019-03-05T09:01:10.463Z,99.13
2019-03-05T09:02:10.454Z,99.24
2019-03-05T09:03:10.442Z,99.03
2019-03-05T09:04:10.415Z,99.03
2019-03-05T09:05:10.418Z,99.03
2019-03-05T09:06:10.392Z,98.93
2019-03-05T09:07:10.379Z,99.03
2019-03-05T09:08:10.417Z,99.07
2019-03-05T09:09:10.443Z,99.07
2019-03-05T09:10:10.346Z,99.18
2019-03-05T09:11:10.725Z,98.97
2019-03-05T09:12:10.339Z,99.28
2019-03-05T09:13:10.341Z,99.18
2019-03-05T09:14:10.307Z,99.38
2019-03-05T09:15:10.306Z,99.28
2019-03-05T09:16:10.364Z,99.80
2019-03-05T09:17:10.302Z,99.80
2019-03-05T09:18:10.302Z,99.59
2019-03-05T09:19:10.252Z,99.55
2019-03-05T09:20:10.262Z,99.59
2019-03-05T09:21:10.317Z,99.59
2019-03-05T09:22:10.226Z,99.59
2019-03-05T09:23:10.247Z,99.59
2019-03-05T09:24:10.255Z,99.70
2019-03-05T09:25:10.210Z,99.99
2019-03-05T09:26:10.207Z,99.86
2019-03-05T09:27:10.178Z,99.76
2019-03-05T09:28:10.186Z,99.96
2019-03-05T09:29:10.173Z,99.65
2019-03-05T09:30:10.141Z,99.44
2019-03-05T09:31:10.155Z,99.51
2019-03-05T09:32:10.192Z,99.92
2019-03-05T09:33:10.157Z,99.99
2019-03-05T09:34:10.304Z,99.51
2019-03-05T09:35:10.101Z,99.92
2019-03-05T09:36:10.069Z,98.99
2019-03-05T09:37:10.119Z,98.99
2019-03-05T09:38:10.073Z,99.30
2019-03-05T09:39:10.061Z,98.78
2019-03-05T09:40:10.070Z,99.19
2019-03-05T09:41:10.028Z,98.99
2019-03-05T09:42:10.017Z,99.40
2019-03-05T09:43:10.021Z,99.35
2019-03-05T09:44:10.012Z,99.04
2019-03-05T09:45:10.030Z,99.15
2019-03-05T09:46:10.177Z,98.73
2019-03-05T09:47:09.992Z,99.04
2019-03-05T09:48:09.977Z,98.94
2019-03-05T09:49:09.957Z,99.00
2019-03-05T09:50:09.974Z,98.90
2019-03-05T09:51:09.937Z,99.10
2019-03-05T09:52:09.906Z,99.00
2019-03-05T09:53:09.905Z,98.69
2019-03-05T09:54:09.923Z,98.38
2019-03-05T09:55:09.961Z,99.10
2019-03-05T09:56:09.861Z,98.90
2019-03-05T09:57:09.858Z,99.10
2019-03-05T09:58:09.885Z,99.00
2019-03-05T09:59:10.118Z,98.48
2019-03-05T10:00:09.869Z,97.44
2019-03-05T10:01:09.845Z,97.71
2019-03-05T10:02:09.818Z,97.39
2019-03-05T10:03:09.788Z,96.88
2019-03-05T10:04:09.772Z,96.98
2019-03-05T10:05:09.809Z,97.19
2019-03-05T10:06:09.771Z,96.88
2019-03-05T10:07:18.475Z,96.52
2019-03-05T10:08:10.755Z,96.94
2019-03-05T10:09:09.727Z,96.73
2019-03-05T10:10:09.722Z,96.31
2019-03-05T10:11:09.705Z,96.58
2019-03-05T10:12:09.761Z,96.52
2019-03-05T10:13:09.862Z,96.31
2019-03-05T10:14:09.730Z,97.14
2019-03-05T10:15:09.656Z,96.94
2019-03-05T10:16:09.654Z,97.10
2019-03-05T10:17:09.735Z,96.48
2019-03-05T10:18:13.027Z,96.27
2019-03-05T10:19:09.675Z,96.27
2019-03-05T10:20:09.743Z,96.17
2019-03-05T10:21:11.821Z,95.75
2019-03-05T10:22:09.659Z,95.40
2019-03-05T10:23:09.635Z,95.40
2019-03-05T10:24:10.636Z,95.19
2019-03-05T10:25:09.600Z,95.61
2019-03-05T10:26:10.556Z,95.29
2019-03-05T10:27:09.600Z,95.71
2019-03-05T10:28:09.574Z,95.29
2019-03-05T10:29:09.654Z,94.47
2019-03-05T10:30:09.566Z,95.40
2019-03-05T10:31:09.531Z,94.84
2019-03-05T10:32:09.563Z,95.29
2019-03-05T10:33:09.525Z,95.09
2019-03-05T10:34:09.461Z,94.78
2019-03-05T10:35:09.466Z,94.98
2019-03-05T10:36:09.524Z,95.19
2019-03-05T10:37:12.823Z,95.19
2019-03-05T10:38:10.435Z,95.50
2019-03-05T10:39:09.511Z,95.61
2019-03-05T10:40:09.416Z,95.61
2019-03-05T10:41:09.436Z,95.34
2019-03-05T10:42:09.413Z,95.75
2019-03-05T10:43:09.407Z,95.75
2019-03-05T10:44:09.404Z,95.03
2019-03-05T10:45:09.402Z,95.54
2019-03-05T10:46:09.416Z,95.03
2019-03-05T10:47:09.393Z,95.65
2019-03-05T10:48:09.335Z,94.82
2019-03-05T10:49:09.299Z,95.65
2019-03-05T10:50:15.370Z,95.44
2019-03-05T10:51:10.392Z,95.54
2019-03-05T10:52:09.484Z,96.27
2019-03-05T10:53:09.286Z,96.27
2019-03-05T10:54:09.286Z,95.86
2019-03-05T10:55:09.331Z,96.27
2019-03-05T10:56:09.261Z,96.69
2019-03-05T10:57:09.215Z,96.27
2019-03-05T10:58:09.213Z,96.27
2019-03-05T10:59:09.238Z,96.79
2019-03-05T11:00:09.419Z,96.58
2019-03-05T11:01:09.229Z,96.58
2019-03-05T11:02:09.305Z,95.44
2019-03-05T11:03:09.242Z,95.65
2019-03-05T11:04:09.223Z,95.54
2019-03-05T11:05:09.136Z,95.75
2019-03-05T11:06:09.166Z,95.75
2019-03-05T11:07:09.125Z,96.27
2019-03-05T11:08:09.097Z,96.27
2019-03-05T11:09:09.127Z,96.12
2019-03-05T11:10:09.185Z,95.29
2019-03-05T11:11:13.396Z,95.09
2019-03-05T11:12:10.074Z,95.36
2019-03-05T11:13:09.050Z,94.22
2019-03-05T11:14:09.109Z,95.00
2019-03-05T11:15:09.054Z,94.90
2019-03-05T11:16:09.009Z,93.97
2019-03-05T11:17:09.064Z,94.75
2019-03-05T11:18:09.014Z,94.54
2019-03-05T11:19:08.977Z,93.41
2019-03-05T11:20:09.003Z,94.65
2019-03-05T11:21:09.001Z,94.13
2019-03-05T11:22:09.025Z,93.30
2019-03-05T11:23:11.435Z,92.68
2019-03-05T11:24:08.994Z,93.10
2019-03-05T11:25:08.933Z,92.99
2019-03-05T11:26:08.923Z,92.27
2019-03-05T11:27:08.900Z,92.93
2019-03-05T11:28:08.893Z,91.90
2019-03-05T11:29:08.928Z,92.83
2019-03-05T11:30:08.949Z,92.83
2019-03-05T11:31:08.851Z,91.17
2019-03-05T11:32:08.910Z,91.13
2019-03-05T11:33:08.874Z,91.75
2019-03-05T11:34:08.851Z,92.58
2019-03-05T11:35:08.933Z,93.68
2019-03-05T11:36:08.865Z,92.44
2019-03-05T11:37:08.816Z,92.44
2019-03-05T11:38:08.800Z,92.23
2019-03-05T11:39:08.845Z,91.44
2019-03-05T11:40:09.232Z,90.72
2019-03-05T11:41:08.741Z,89.69
2019-03-05T11:42:08.845Z,90.00
2019-03-05T11:43:08.746Z,89.59
2019-03-05T11:44:08.921Z,87.83
2019-03-05T11:45:11.635Z,89.17
2019-03-05T11:46:08.756Z,90.72
2019-03-05T11:47:08.729Z,90.66
2019-03-05T11:48:08.746Z,91.13
2019-03-05T11:49:08.720Z,88.96
2019-03-05T11:50:08.655Z,89.03
2019-03-05T11:51:08.677Z,88.82
2019-03-05T11:52:08.712Z,85.86
2019-03-05T11:53:08.618Z,87.10
2019-03-05T11:54:08.613Z,89.28
2019-03-05T11:55:08.611Z,89.59
2019-03-05T11:56:08.617Z,88.24
2019-03-05T11:57:08.577Z,89.17
2019-03-05T11:58:08.664Z,90.41
2019-03-05T11:59:08.568Z,89.79
2019-03-05T12:00:08.576Z,89.75
2019-03-05T12:01:08.585Z,90.12
2019-03-05T12:02:09.841Z,89.46
2019-03-05T12:03:08.520Z,88.95
2019-03-05T12:04:08.492Z,87.56
2019-03-05T12:05:08.551Z,85.09
2019-03-05T12:06:08.475Z,84.74
2019-03-05T12:07:08.464Z,86.39
2019-03-05T12:08:08.450Z,87.38
2019-03-05T12:09:08.443Z,87.65
2019-03-05T12:10:08.457Z,85.96
2019-03-05T12:11:08.480Z,84.93
2019-03-05T12:12:08.444Z,85.03
2019-03-05T12:13:08.405Z,84.83
2019-03-05T12:14:08.399Z,85.24
2019-03-05T12:15:08.374Z,84.79
2019-03-05T12:16:08.400Z,84.79
2019-03-05T12:17:08.370Z,82.32
2019-03-05T12:18:08.430Z,81.49
2019-03-05T12:19:08.333Z,83.55
2019-03-05T12:20:08.435Z,84.72
2019-03-05T12:21:08.358Z,80.85
2019-03-05T12:22:08.328Z,82.70
2019-03-05T12:23:10.293Z,82.56
2019-03-05T12:24:08.317Z,83.32
2019-03-05T12:25:08.321Z,82.50
2019-03-05T12:26:08.261Z,82.60
2019-03-05T12:27:08.271Z,82.56
2019-03-05T12:28:10.611Z,80.91
2019-03-05T12:29:08.288Z,83.39
2019-03-05T12:30:08.250Z,82.11
2019-03-05T12:31:08.212Z,82.42
2019-03-05T12:32:08.196Z,82.01
2019-03-05T12:33:08.240Z,80.98
2019-03-05T12:34:08.297Z,79.85
2019-03-05T12:35:08.175Z,81.95
2019-03-05T12:36:08.176Z,81.84
2019-03-05T12:37:08.230Z,81.84
2019-03-05T12:38:08.147Z,82.56
2019-03-05T12:39:08.240Z,83.59
2019-03-05T12:40:08.145Z,82.56
2019-03-05T12:41:08.100Z,82.87
2019-03-05T12:42:08.092Z,83.14
2019-03-05T12:43:08.094Z,84.27
2019-03-05T12:44:08.074Z,81.70
2019-03-05T12:45:08.115Z,82.11
2019-03-05T12:46:08.043Z,82.46
2019-03-05T12:47:08.044Z,82.15
2019-03-05T12:48:08.019Z,83.59
2019-03-05T12:49:08.075Z,82.42
2019-03-05T12:50:08.013Z,82.15
2019-03-05T12:51:08.017Z,82.15
2019-03-05T12:52:07.987Z,83.49